createdAt,value
2018-12-03T00:00:20.795Z,0
2018-12-03T00:01:20.534Z,0
2018-12-03T00:02:20.770Z,0
2018-12-03T00:03:20.793Z,0
2018-12-03T00:04:20.746Z,0
2018-12-03T00:05:20.737Z,0
2018-12-03T00:06:20.730Z,0
2018-12-03T00:07:20.714Z,0
2018-12-03T00:08:20.746Z,0
2018-12-03T00:09:20.702Z,0
2018-12-03T00:10:20.679Z,0
2018-12-03T00:11:20.668Z,0
2018-12-03T00:12:20.657Z,0
2018-12-03T00:13:20.655Z,0
2018-12-03T00:14:20.148Z,0
2018-12-03T00:15:20.377Z,0
2018-12-03T00:16:20.613Z,0
2018-12-03T00:17:20.607Z,0
2018-12-03T00:18:20.590Z,0
2018-12-03T00:19:20.330Z,0
2018-12-03T00:20:20.563Z,0
2018-12-03T00:21:20.604Z,0
2018-12-03T00:22:20.544Z,0
2018-12-03T00:23:20.544Z,0
2018-12-03T00:24:20.275Z,0
2018-12-03T00:25:20.512Z,0
2018-12-03T00:26:20.248Z,0
2018-12-03T00:27:20.483Z,0
2018-12-03T00:28:20.518Z,0
2018-12-03T00:29:20.485Z,0
2018-12-03T00:30:20.467Z,0
2018-12-03T00:31:20.448Z,0
2018-12-03T00:32:20.184Z,0
2018-12-03T00:33:20.175Z,0
2018-12-03T00:34:20.412Z,0
2018-12-03T00:35:20.157Z,0
2018-12-03T00:36:20.584Z,0
2018-12-03T00:37:20.369Z,0
2018-12-03T00:38:20.359Z,0
2018-12-03T00:39:20.347Z,0
2018-12-03T00:40:20.091Z,0
2018-12-03T00:41:20.338Z,0
2018-12-03T00:42:20.316Z,0
2018-12-03T00:43:20.307Z,0
2018-12-03T00:44:20.299Z,0
2018-12-03T00:45:20.034Z,0
2018-12-03T00:46:20.271Z,0
2018-12-03T00:47:20.019Z,0
2018-12-03T00:48:20.250Z,0
2018-12-03T00:49:20.006Z,0
2018-12-03T00:50:20.235Z,0
2018-12-03T00:51:20.221Z,0
2018-12-03T00:52:20.214Z,0
2018-12-03T00:53:19.698Z,0
2018-12-03T00:54:19.939Z,0
2018-12-03T00:55:20.174Z,0
2018-12-03T00:56:20.162Z,0
2018-12-03T00:57:20.149Z,0
2018-12-03T00:58:19.896Z,0
2018-12-03T00:59:20.170Z,0
2018-12-03T01:00:20.115Z,0
2018-12-03T01:01:20.109Z,0
2018-12-03T01:02:20.090Z,0
2018-12-03T01:03:20.089Z,0
2018-12-03T01:04:20.074Z,0
2018-12-03T01:05:19.812Z,0
2018-12-03T01:06:20.054Z,0
2018-12-03T01:07:20.040Z,0
2018-12-03T01:08:20.081Z,0
2018-12-03T01:09:20.019Z,0
2018-12-03T01:10:20.005Z,0
2018-12-03T01:11:19.999Z,0
2018-12-03T01:12:19.987Z,0
2018-12-03T01:13:19.478Z,0
2018-12-03T01:14:19.964Z,0
2018-12-03T01:15:19.951Z,0
2018-12-03T01:16:19.692Z,0
2018-12-03T01:17:19.928Z,0
2018-12-03T01:18:19.931Z,0
2018-12-03T01:19:19.658Z,0
2018-12-03T01:20:19.648Z,0
2018-12-03T01:21:19.888Z,0
2018-12-03T01:22:19.876Z,0
2018-12-03T01:23:19.366Z,0
2018-12-03T01:24:19.854Z,0
2018-12-03T01:25:19.596Z,0
2018-12-03T01:26:19.579Z,0
2018-12-03T01:27:19.582Z,0
2018-12-03T01:28:19.566Z,0
2018-12-03T01:29:19.800Z,0
2018-12-03T01:30:19.789Z,0
2018-12-03T01:31:19.773Z,0
2018-12-03T01:32:19.514Z,0
2018-12-03T01:33:19.758Z,0
2018-12-03T01:34:19.752Z,0
2018-12-03T01:35:19.733Z,0
2018-12-03T01:36:19.475Z,0
2018-12-03T01:37:19.712Z,0
2018-12-03T01:38:19.699Z,0
2018-12-03T01:39:19.691Z,0
2018-12-03T01:40:19.426Z,0
2018-12-03T01:41:19.665Z,0
2018-12-03T01:42:19.656Z,0
2018-12-03T01:43:19.398Z,0
2018-12-03T01:44:19.385Z,0
2018-12-03T01:45:19.382Z,0
2018-12-03T01:46:19.607Z,0
2018-12-03T01:47:19.593Z,0
2018-12-03T01:48:19.344Z,0
2018-12-03T01:49:19.587Z,0
2018-12-03T01:50:19.322Z,0
2018-12-03T01:51:19.318Z,0
2018-12-03T01:52:19.541Z,0
2018-12-03T01:53:19.533Z,0
2018-12-03T01:54:19.526Z,0
2018-12-03T01:55:19.260Z,0
2018-12-03T01:56:19.500Z,0
2018-12-03T01:57:19.492Z,0
2018-12-03T01:58:19.241Z,0
2018-12-03T01:59:19.462Z,0
2018-12-03T02:00:19.452Z,0
2018-12-03T02:01:19.446Z,0
2018-12-03T02:02:19.429Z,0
2018-12-03T02:03:19.172Z,0
2018-12-03T02:04:19.236Z,0
2018-12-03T02:05:19.156Z,0
2018-12-03T02:06:19.387Z,0
2018-12-03T02:07:19.379Z,0
2018-12-03T02:08:18.870Z,0
2018-12-03T02:09:19.110Z,0
2018-12-03T02:10:19.344Z,0
2018-12-03T02:11:19.341Z,0
2018-12-03T02:12:19.325Z,0
2018-12-03T02:13:19.308Z,0
2018-12-03T02:14:19.060Z,0
2018-12-03T02:15:19.291Z,0
2018-12-03T02:16:19.027Z,0
2018-12-03T02:17:19.017Z,0
2018-12-03T02:18:19.016Z,0
2018-12-03T02:19:19.249Z,0
2018-12-03T02:20:19.233Z,0
2018-12-03T02:21:19.274Z,0
2018-12-03T02:22:19.208Z,0
2018-12-03T02:23:19.201Z,0
2018-12-03T02:24:19.191Z,0
2018-12-03T02:25:19.178Z,0
2018-12-03T02:26:19.190Z,0
2018-12-03T02:27:19.161Z,0
2018-12-03T02:28:19.149Z,0
2018-12-03T02:29:18.934Z,0
2018-12-03T02:30:19.149Z,0
2018-12-03T02:31:19.122Z,0
2018-12-03T02:32:19.108Z,0
2018-12-03T02:33:19.103Z,0
2018-12-03T02:34:19.083Z,0
2018-12-03T02:35:18.853Z,0
2018-12-03T02:36:19.060Z,0
2018-12-03T02:37:19.051Z,0
2018-12-03T02:38:19.051Z,0
2018-12-03T02:39:19.041Z,0
2018-12-03T02:40:19.031Z,0
2018-12-03T02:41:19.019Z,0
2018-12-03T02:42:18.998Z,0
2018-12-03T02:43:18.735Z,0
2018-12-03T02:44:18.976Z,0
2018-12-03T02:45:18.969Z,0
2018-12-03T02:46:18.965Z,0
2018-12-03T02:47:18.979Z,0
2018-12-03T02:48:18.930Z,0
2018-12-03T02:49:18.946Z,0
2018-12-03T02:50:18.652Z,0
2018-12-03T02:51:18.893Z,0
2018-12-03T02:52:18.890Z,0
2018-12-03T02:53:18.879Z,0
2018-12-03T02:54:18.863Z,0
2018-12-03T02:55:18.611Z,0
2018-12-03T02:56:18.851Z,0
2018-12-03T02:57:18.832Z,0
2018-12-03T02:58:18.830Z,0
2018-12-03T02:59:18.822Z,0
2018-12-03T03:00:18.812Z,0
2018-12-03T03:01:18.802Z,0
2018-12-03T03:02:18.793Z,0
2018-12-03T03:03:18.527Z,0
2018-12-03T03:04:18.515Z,0
2018-12-03T03:05:18.495Z,0
2018-12-03T03:06:18.511Z,0
2018-12-03T03:07:18.738Z,0
2018-12-03T03:08:18.712Z,0
2018-12-03T03:09:18.718Z,0
2018-12-03T03:10:18.511Z,0
2018-12-03T03:11:18.679Z,0
2018-12-03T03:12:18.671Z,0
2018-12-03T03:13:18.171Z,0
2018-12-03T03:14:18.645Z,0
2018-12-03T03:15:18.649Z,0
2018-12-03T03:16:18.630Z,0
2018-12-03T03:17:18.613Z,0
2018-12-03T03:18:18.355Z,0
2018-12-03T03:19:18.610Z,0
2018-12-03T03:20:18.588Z,0
2018-12-03T03:21:18.318Z,0
2018-12-03T03:22:18.314Z,0
2018-12-03T03:23:18.557Z,0
2018-12-03T03:24:18.541Z,0
2018-12-03T03:25:18.526Z,0
2018-12-03T03:26:18.585Z,0
2018-12-03T03:27:18.506Z,0
2018-12-03T03:28:18.491Z,0
2018-12-03T03:29:18.486Z,0
2018-12-03T03:30:18.534Z,0
2018-12-03T03:31:17.981Z,0
2018-12-03T03:32:18.490Z,0
2018-12-03T03:33:18.498Z,0
2018-12-03T03:34:18.429Z,0
2018-12-03T03:35:18.191Z,0
2018-12-03T03:36:18.406Z,0
2018-12-03T03:37:18.402Z,0
2018-12-03T03:38:18.134Z,0
2018-12-03T03:39:18.379Z,0
2018-12-03T03:40:18.109Z,0
2018-12-03T03:41:18.357Z,0
2018-12-03T03:42:18.100Z,0
2018-12-03T03:43:18.088Z,0
2018-12-03T03:44:17.842Z,0
2018-12-03T03:45:18.305Z,0
2018-12-03T03:46:18.292Z,0
2018-12-03T03:47:18.296Z,0
2018-12-03T03:48:18.272Z,0
2018-12-03T03:49:18.260Z,0
2018-12-03T03:50:18.248Z,0
2018-12-03T03:51:18.244Z,0
2018-12-03T03:52:18.227Z,0
2018-12-03T03:53:18.238Z,0
2018-12-03T03:54:18.211Z,0
2018-12-03T03:55:17.947Z,0
2018-12-03T03:56:18.192Z,0
2018-12-03T03:57:18.194Z,0
2018-12-03T03:58:17.913Z,0
2018-12-03T03:59:18.159Z,0
2018-12-03T04:00:17.898Z,0
2018-12-03T04:01:18.146Z,0
2018-12-03T04:02:18.122Z,0
2018-12-03T04:03:18.125Z,0
2018-12-03T04:04:18.102Z,0
2018-12-03T04:05:18.091Z,0
2018-12-03T04:06:18.077Z,0
2018-12-03T04:07:18.075Z,0
2018-12-03T04:08:18.054Z,0
2018-12-03T04:09:18.047Z,0
2018-12-03T04:10:17.798Z,0
2018-12-03T04:11:18.029Z,0
2018-12-03T04:12:18.018Z,0
2018-12-03T04:13:17.510Z,0
2018-12-03T04:14:17.757Z,0
2018-12-03T04:15:18.023Z,0
2018-12-03T04:16:17.967Z,0
2018-12-03T04:17:17.703Z,0
2018-12-03T04:18:17.695Z,0
2018-12-03T04:19:17.937Z,0
2018-12-03T04:20:17.670Z,0
2018-12-03T04:21:17.906Z,0
2018-12-03T04:22:17.898Z,0
2018-12-03T04:23:17.904Z,0
2018-12-03T04:24:17.877Z,0
2018-12-03T04:25:17.879Z,0
2018-12-03T04:26:17.857Z,0
2018-12-03T04:27:17.596Z,0
2018-12-03T04:28:17.825Z,0
2018-12-03T04:29:17.813Z,0
2018-12-03T04:30:17.840Z,0
2018-12-03T04:31:17.799Z,0
2018-12-03T04:32:17.785Z,0
2018-12-03T04:33:17.770Z,0
2018-12-03T04:34:17.765Z,0
2018-12-03T04:35:17.534Z,0
2018-12-03T04:36:17.746Z,0
2018-12-03T04:37:17.724Z,0
2018-12-03T04:38:17.467Z,0
2018-12-03T04:39:17.455Z,0
2018-12-03T04:40:17.691Z,0
2018-12-03T04:41:17.443Z,0
2018-12-03T04:42:17.187Z,0
2018-12-03T04:43:17.405Z,0
2018-12-03T04:44:17.398Z,0
2018-12-03T04:45:17.388Z,0
2018-12-03T04:46:17.626Z,0
2018-12-03T04:47:17.623Z,0
2018-12-03T04:48:17.354Z,0
2018-12-03T04:49:17.600Z,0
2018-12-03T04:50:17.346Z,0
2018-12-03T04:51:17.321Z,0
2018-12-03T04:52:17.561Z,0
2018-12-03T04:53:17.558Z,0
2018-12-03T04:54:17.534Z,0
2018-12-03T04:55:17.525Z,0
2018-12-03T04:56:17.507Z,0
2018-12-03T04:57:17.250Z,0
2018-12-03T04:58:17.494Z,0
2018-12-03T04:59:17.223Z,0
2018-12-03T05:00:17.472Z,0
2018-12-03T05:01:17.454Z,0
2018-12-03T05:02:17.440Z,0
2018-12-03T05:03:17.186Z,0
2018-12-03T05:04:17.422Z,0
2018-12-03T05:05:17.158Z,0
2018-12-03T05:06:17.156Z,0
2018-12-03T05:07:17.384Z,0
2018-12-03T05:08:17.129Z,0
2018-12-03T05:09:17.371Z,0
2018-12-03T05:10:17.345Z,0
2018-12-03T05:11:17.329Z,0
2018-12-03T05:12:17.324Z,0
2018-12-03T05:13:17.071Z,0
2018-12-03T05:14:17.049Z,0
2018-12-03T05:15:17.295Z,0
2018-12-03T05:16:17.029Z,0
2018-12-03T05:17:17.263Z,0
2018-12-03T05:18:17.295Z,0
2018-12-03T05:19:16.999Z,0
2018-12-03T05:20:17.292Z,0
2018-12-03T05:21:16.977Z,0
2018-12-03T05:22:17.207Z,0
2018-12-03T05:23:17.207Z,0
2018-12-03T05:24:17.179Z,0
2018-12-03T05:25:21.526Z,0
2018-12-03T05:26:17.166Z,0
2018-12-03T05:27:17.149Z,0
2018-12-03T05:28:17.135Z,0
2018-12-03T05:29:17.137Z,0
2018-12-03T05:30:16.867Z,0
2018-12-03T05:31:16.851Z,0
2018-12-03T05:32:17.098Z,0
2018-12-03T05:33:16.838Z,0
2018-12-03T05:34:16.820Z,0
2018-12-03T05:35:16.807Z,0
2018-12-03T05:36:16.795Z,0
2018-12-03T05:37:16.532Z,0
2018-12-03T05:38:17.018Z,0
2018-12-03T05:39:17.010Z,0
2018-12-03T05:40:16.999Z,0
2018-12-03T05:41:16.977Z,0
2018-12-03T05:42:16.718Z,0
2018-12-03T05:43:16.948Z,0
2018-12-03T05:44:16.945Z,0
2018-12-03T05:45:16.927Z,0
2018-12-03T05:46:16.924Z,0
2018-12-03T05:47:16.655Z,0
2018-12-03T05:48:16.644Z,0
2018-12-03T05:49:16.880Z,0
2018-12-03T05:50:16.878Z,0
2018-12-03T05:51:16.855Z,0
2018-12-03T05:52:16.846Z,0
2018-12-03T05:53:16.830Z,0
2018-12-03T05:54:17.052Z,0
2018-12-03T05:55:16.824Z,0
2018-12-03T05:56:16.807Z,0
2018-12-03T05:57:16.789Z,0
2018-12-03T05:58:16.279Z,0
2018-12-03T05:59:16.261Z,0
2018-12-03T06:00:16.501Z,0
2018-12-03T06:01:16.741Z,0
2018-12-03T06:02:16.231Z,0
2018-12-03T06:03:16.752Z,0
2018-12-03T06:04:16.707Z,0
2018-12-03T06:05:16.445Z,0
2018-12-03T06:06:16.427Z,0
2018-12-03T06:07:16.421Z,0
2018-12-03T06:08:16.655Z,0
2018-12-03T06:09:16.395Z,0
2018-12-03T06:10:16.635Z,0
2018-12-03T06:11:16.119Z,0
2018-12-03T06:12:16.360Z,0
2018-12-03T06:13:16.709Z,0
2018-12-03T06:14:16.579Z,0
2018-12-03T06:15:16.575Z,0
2018-12-03T06:16:16.371Z,0
2018-12-03T06:17:16.545Z,0
2018-12-03T06:18:16.537Z,0
2018-12-03T06:19:16.527Z,0
2018-12-03T06:20:16.268Z,0
2018-12-03T06:21:16.261Z,0
2018-12-03T06:22:16.485Z,0
2018-12-03T06:23:16.225Z,0
2018-12-03T06:24:16.465Z,0
2018-12-03T06:25:16.529Z,0
2018-12-03T06:26:16.191Z,0
2018-12-03T06:27:16.177Z,0
2018-12-03T06:28:16.424Z,0
2018-12-03T06:29:16.169Z,0
2018-12-03T06:30:16.143Z,0
2018-12-03T06:31:16.382Z,0
2018-12-03T06:32:16.375Z,0
2018-12-03T06:33:16.105Z,0
2018-12-03T06:34:16.355Z,0
2018-12-03T06:35:16.094Z,0
2018-12-03T06:36:16.089Z,0
2018-12-03T06:37:16.310Z,0
2018-12-03T06:38:22.424Z,0
2018-12-03T06:39:16.288Z,0
2018-12-03T06:40:16.273Z,0
2018-12-03T06:41:16.264Z,0
2018-12-03T06:42:16.010Z,0
2018-12-03T06:43:16.059Z,0
2018-12-03T06:44:15.990Z,0
2018-12-03T06:45:15.974Z,0
2018-12-03T06:46:15.959Z,0
2018-12-03T06:47:16.204Z,0
2018-12-03T06:48:16.187Z,0
2018-12-03T06:49:15.933Z,0
2018-12-03T06:50:16.164Z,0
2018-12-03T06:51:16.152Z,0
2018-12-03T06:52:15.893Z,0
2018-12-03T06:53:16.142Z,0
2018-12-03T06:54:16.109Z,5
2018-12-03T06:55:15.862Z,5
2018-12-03T06:56:16.089Z,5
2018-12-03T06:57:16.087Z,5
2018-12-03T06:58:16.076Z,5
2018-12-03T06:59:15.822Z,5
2018-12-03T07:00:15.793Z,5
2018-12-03T07:01:15.784Z,5
2018-12-03T07:02:16.018Z,5
2018-12-03T07:03:16.015Z,5
2018-12-03T07:04:15.505Z,5
2018-12-03T07:05:15.743Z,5
2018-12-03T07:06:15.731Z,5
2018-12-03T07:07:15.722Z,5
2018-12-03T07:08:16.003Z,5
2018-12-03T07:09:15.937Z,10
2018-12-03T07:10:15.686Z,10
2018-12-03T07:11:15.912Z,10
2018-12-03T07:12:15.903Z,10
2018-12-03T07:13:15.891Z,10
2018-12-03T07:14:15.643Z,10
2018-12-03T07:15:15.870Z,10
2018-12-03T07:16:15.861Z,10
2018-12-03T07:17:15.848Z,10
2018-12-03T07:18:15.836Z,10
2018-12-03T07:19:15.575Z,10
2018-12-03T07:20:15.832Z,10
2018-12-03T07:21:15.864Z,10
2018-12-03T07:22:15.551Z,10
2018-12-03T07:23:15.785Z,10
2018-12-03T07:24:15.773Z,10
2018-12-03T07:25:15.754Z,15
2018-12-03T07:26:15.499Z,15
2018-12-03T07:27:15.732Z,15
2018-12-03T07:28:15.779Z,15
2018-12-03T07:29:15.714Z,15
2018-12-03T07:30:15.209Z,15
2018-12-03T07:31:15.692Z,15
2018-12-03T07:32:15.678Z,15
2018-12-03T07:33:15.434Z,20
2018-12-03T07:34:15.407Z,15
2018-12-03T07:35:15.638Z,20
2018-12-03T07:36:15.630Z,20
2018-12-03T07:37:15.372Z,20
2018-12-03T07:38:15.641Z,25
2018-12-03T07:39:15.601Z,30
2018-12-03T07:40:14.840Z,35
2018-12-03T07:41:15.328Z,25
2018-12-03T07:42:15.561Z,30
2018-12-03T07:43:15.555Z,35
2018-12-03T07:44:15.292Z,30
2018-12-03T07:45:15.283Z,30
2018-12-03T07:46:15.027Z,25
2018-12-03T07:47:15.503Z,20
2018-12-03T07:48:14.998Z,20
2018-12-03T07:49:15.236Z,15
2018-12-03T07:50:15.233Z,15
2018-12-03T07:51:14.719Z,15
2018-12-03T07:52:15.455Z,15
2018-12-03T07:53:14.946Z,20
2018-12-03T07:54:15.582Z,20
2018-12-03T07:55:15.417Z,20
2018-12-03T07:56:15.162Z,15
2018-12-03T07:57:15.157Z,15
2018-12-03T07:58:15.389Z,15
2018-12-03T07:59:15.378Z,15
2018-12-03T08:00:15.365Z,15
2018-12-03T08:01:15.106Z,15
2018-12-03T08:02:15.341Z,10
2018-12-03T08:03:15.082Z,10
2018-12-03T08:04:15.346Z,10
2018-12-03T08:05:15.308Z,10
2018-12-03T08:06:15.295Z,10
2018-12-03T08:07:15.037Z,10
2018-12-03T08:08:15.280Z,10
2018-12-03T08:09:15.261Z,10
2018-12-03T08:10:15.252Z,5
2018-12-03T08:11:14.995Z,10
2018-12-03T08:12:15.230Z,10
2018-12-03T08:13:15.218Z,10
2018-12-03T08:14:14.964Z,10
2018-12-03T08:15:14.945Z,10
2018-12-03T08:16:15.191Z,15
2018-12-03T08:17:15.178Z,10
2018-12-03T08:18:15.163Z,10
2018-12-03T08:19:15.146Z,15
2018-12-03T08:20:15.140Z,15
2018-12-03T08:21:14.642Z,15
2018-12-03T08:22:15.120Z,15
2018-12-03T08:23:15.101Z,20
2018-12-03T08:24:15.096Z,20
2018-12-03T08:25:14.831Z,20
2018-12-03T08:26:14.832Z,20
2018-12-03T08:27:15.065Z,20
2018-12-03T08:28:14.805Z,20
2018-12-03T08:29:14.539Z,20
2018-12-03T08:30:14.532Z,20
2018-12-03T08:31:15.012Z,25
2018-12-03T08:32:15.014Z,30
2018-12-03T08:33:15.006Z,35
2018-12-03T08:34:14.749Z,40
2018-12-03T08:35:14.973Z,45
2018-12-03T08:36:14.969Z,45
2018-12-03T08:37:14.953Z,45
2018-12-03T08:38:14.689Z,50
2018-12-03T08:39:14.676Z,50
2018-12-03T08:40:14.921Z,55
2018-12-03T08:41:14.906Z,60
2018-12-03T08:42:14.644Z,65
2018-12-03T08:43:14.929Z,65
2018-12-03T08:44:15.714Z,70
2018-12-03T08:45:14.611Z,70
2018-12-03T08:46:14.600Z,75
2018-12-03T08:47:14.838Z,75
2018-12-03T08:48:14.823Z,75
2018-12-03T08:49:14.817Z,75
2018-12-03T08:50:14.801Z,75
2018-12-03T08:51:14.551Z,80
2018-12-03T08:52:14.779Z,75
2018-12-03T08:53:14.527Z,70
2018-12-03T08:54:14.512Z,70
2018-12-03T08:55:14.800Z,70
2018-12-03T08:56:14.739Z,70
2018-12-03T08:57:14.774Z,75
2018-12-03T08:58:14.717Z,85
2018-12-03T08:59:14.458Z,90
2018-12-03T09:00:14.450Z,95
2018-12-03T09:01:14.688Z,100
2018-12-03T09:02:14.674Z,105
2018-12-03T09:03:14.166Z,110
2018-12-03T09:04:14.651Z,110
2018-12-03T09:05:14.391Z,110
2018-12-03T09:06:14.383Z,110
2018-12-03T09:07:14.650Z,110
2018-12-03T09:08:14.637Z,110
2018-12-03T09:09:14.342Z,110
2018-12-03T09:10:14.344Z,110
2018-12-03T09:11:14.327Z,110
2018-12-03T09:12:14.567Z,110
2018-12-03T09:13:14.553Z,105
2018-12-03T09:14:14.541Z,105
2018-12-03T09:15:14.530Z,100
2018-12-03T09:16:14.520Z,95
2018-12-03T09:17:14.507Z,90
2018-12-03T09:18:14.562Z,85
2018-12-03T09:19:14.237Z,85
2018-12-03T09:20:14.230Z,85
2018-12-03T09:21:14.219Z,85
2018-12-03T09:22:14.456Z,80
2018-12-03T09:23:14.441Z,80
2018-12-03T09:24:14.178Z,80
2018-12-03T09:25:14.419Z,85
2018-12-03T09:26:14.160Z,90
2018-12-03T09:27:14.152Z,90
2018-12-03T09:28:14.384Z,90
2018-12-03T09:29:14.375Z,90
2018-12-03T09:30:14.118Z,95
2018-12-03T09:31:14.353Z,90
2018-12-03T09:32:14.354Z,85
2018-12-03T09:33:14.332Z,80
2018-12-03T09:34:14.321Z,80
2018-12-03T09:35:13.826Z,75
2018-12-03T09:36:14.304Z,75
2018-12-03T09:37:14.288Z,75
2018-12-03T09:38:14.276Z,80
2018-12-03T09:39:14.272Z,80
2018-12-03T09:40:13.755Z,80
2018-12-03T09:41:15.512Z,85
2018-12-03T09:42:14.988Z,80
2018-12-03T09:43:14.218Z,80
2018-12-03T09:44:13.960Z,80
2018-12-03T09:45:13.949Z,80
2018-12-03T09:46:13.938Z,80
2018-12-03T09:47:14.177Z,80
2018-12-03T09:48:14.162Z,80
2018-12-03T09:49:14.148Z,80
2018-12-03T09:50:13.936Z,85
2018-12-03T09:51:14.184Z,85
2018-12-03T09:52:14.133Z,85
2018-12-03T09:53:13.873Z,90
2018-12-03T09:54:14.119Z,90
2018-12-03T09:55:13.846Z,90
2018-12-03T09:56:14.086Z,85
2018-12-03T09:57:13.827Z,85
2018-12-03T09:58:15.064Z,80
2018-12-03T09:59:14.052Z,75
2018-12-03T10:00:13.785Z,75
2018-12-03T10:01:14.045Z,70
2018-12-03T10:02:14.014Z,75
2018-12-03T10:03:14.010Z,75
2018-12-03T10:04:13.991Z,75
2018-12-03T10:05:13.736Z,70
2018-12-03T10:06:13.740Z,75
2018-12-03T10:07:13.717Z,75
2018-12-03T10:08:14.000Z,80
2018-12-03T10:09:13.933Z,70
2018-12-03T10:10:13.920Z,75
2018-12-03T10:11:13.915Z,80
2018-12-03T10:12:18.175Z,110
2018-12-03T10:13:13.389Z,115
2018-12-03T10:14:19.673Z,110
2018-12-03T10:15:13.864Z,100
2018-12-03T10:16:13.846Z,80
2018-12-03T10:17:13.842Z,70
2018-12-03T10:18:13.834Z,80
2018-12-03T10:19:13.826Z,80
2018-12-03T10:20:13.808Z,85
2018-12-03T10:21:13.555Z,80
2018-12-03T10:22:13.301Z,75
2018-12-03T10:23:13.781Z,75
2018-12-03T10:24:13.509Z,75
2018-12-03T10:25:13.507Z,75
2018-12-03T10:26:13.742Z,85
2018-12-03T10:27:13.749Z,85
2018-12-03T10:28:13.468Z,80
2018-12-03T10:29:13.460Z,80
2018-12-03T10:30:13.449Z,80
2018-12-03T10:31:13.437Z,80
2018-12-03T10:32:13.185Z,75
2018-12-03T10:33:13.419Z,85
2018-12-03T10:34:13.650Z,75
2018-12-03T10:35:13.637Z,80
2018-12-03T10:36:13.649Z,85
2018-12-03T10:37:13.621Z,80
2018-12-03T10:38:13.612Z,75
2018-12-03T10:39:13.347Z,70
2018-12-03T10:40:13.588Z,80
2018-12-03T10:41:13.569Z,75
2018-12-03T10:42:13.559Z,80
2018-12-03T10:43:13.329Z,75
2018-12-03T10:44:13.546Z,70
2018-12-03T10:45:13.527Z,80
2018-12-03T10:46:13.523Z,85
2018-12-03T10:47:13.257Z,80
2018-12-03T10:48:13.496Z,80
2018-12-03T10:49:13.485Z,80
2018-12-03T10:50:13.222Z,85
2018-12-03T10:51:13.218Z,85
2018-12-03T10:52:13.444Z,85
2018-12-03T10:53:13.440Z,75
2018-12-03T10:54:13.439Z,75
2018-12-03T10:55:13.162Z,80
2018-12-03T10:56:13.401Z,95
2018-12-03T10:57:13.147Z,120
2018-12-03T10:58:13.132Z,150
2018-12-03T10:59:13.371Z,130
2018-12-03T11:00:13.112Z,130
2018-12-03T11:01:13.342Z,120
2018-12-03T11:02:13.337Z,120
2018-12-03T11:03:13.082Z,115
2018-12-03T11:04:13.315Z,125
2018-12-03T11:05:13.310Z,130
2018-12-03T11:06:13.297Z,100
2018-12-03T11:07:13.281Z,90
2018-12-03T11:08:12.771Z,95
2018-12-03T11:09:12.520Z,95
2018-12-03T11:10:13.254Z,80
2018-12-03T11:11:12.997Z,80
2018-12-03T11:12:12.999Z,95
2018-12-03T11:13:13.221Z,105
2018-12-03T11:14:13.199Z,100
2018-12-03T11:15:13.198Z,95
2018-12-03T11:16:12.946Z,90
2018-12-03T11:17:12.924Z,80
2018-12-03T11:18:12.914Z,75
2018-12-03T11:19:13.160Z,70
2018-12-03T11:20:13.169Z,80
2018-12-03T11:21:13.125Z,80
2018-12-03T11:22:13.160Z,85
2018-12-03T11:23:13.112Z,80
2018-12-03T11:24:13.095Z,80
2018-12-03T11:25:13.086Z,75
2018-12-03T11:26:13.072Z,75
2018-12-03T11:27:12.824Z,80
2018-12-03T11:28:13.051Z,95
2018-12-03T11:29:13.043Z,95
2018-12-03T11:30:13.041Z,85
2018-12-03T11:31:13.027Z,85
2018-12-03T11:32:12.518Z,85
2018-12-03T11:33:13.000Z,85
2018-12-03T11:34:12.992Z,85
2018-12-03T11:35:15.263Z,90
2018-12-03T11:36:12.965Z,90
2018-12-03T11:37:12.711Z,95
2018-12-03T11:38:12.951Z,85
2018-12-03T11:39:12.944Z,80
2018-12-03T11:40:12.922Z,75
2018-12-03T11:41:12.928Z,75
2018-12-03T11:42:12.910Z,75
2018-12-03T11:43:12.898Z,70
2018-12-03T11:44:12.891Z,70
2018-12-03T11:45:12.875Z,65
2018-12-03T11:46:12.872Z,65
2018-12-03T11:47:12.616Z,65
2018-12-03T11:48:12.600Z,65
2018-12-03T11:49:12.593Z,65
2018-12-03T11:50:12.825Z,65
2018-12-03T11:51:12.315Z,65
2018-12-03T11:52:12.804Z,70
2018-12-03T11:53:12.794Z,75
2018-12-03T11:54:12.285Z,75
2018-12-03T11:55:12.771Z,70
2018-12-03T11:56:12.756Z,105
2018-12-03T11:57:12.755Z,100
2018-12-03T11:58:12.492Z,130
2018-12-03T11:59:12.542Z,155
2018-12-03T12:00:12.470Z,170
2018-12-03T12:01:12.713Z,185
2018-12-03T12:02:12.704Z,185
2018-12-03T12:03:12.441Z,185
2018-12-03T12:04:12.674Z,175
2018-12-03T12:05:12.673Z,145
2018-12-03T12:06:12.654Z,100
2018-12-03T12:07:12.640Z,90
2018-12-03T12:08:12.636Z,90
2018-12-03T12:09:12.628Z,60
2018-12-03T12:10:12.610Z,110
2018-12-03T12:11:12.603Z,125
2018-12-03T12:12:12.341Z,160
2018-12-03T12:13:12.586Z,170
2018-12-03T12:14:12.575Z,165
2018-12-03T12:15:12.575Z,170
2018-12-03T12:16:12.558Z,175
2018-12-03T12:17:12.553Z,170
2018-12-03T12:18:12.537Z,160
2018-12-03T12:19:12.731Z,135
2018-12-03T12:20:12.513Z,115
2018-12-03T12:21:12.259Z,120
2018-12-03T12:22:12.501Z,105
2018-12-03T12:23:12.478Z,130
2018-12-03T12:24:12.475Z,135
2018-12-03T12:25:12.459Z,130
2018-12-03T12:26:12.452Z,125
2018-12-03T12:27:12.449Z,125
2018-12-03T12:28:12.434Z,115
2018-12-03T12:29:12.426Z,105
2018-12-03T12:30:12.412Z,90
2018-12-03T12:31:12.402Z,75
2018-12-03T12:32:11.894Z,65
2018-12-03T12:33:12.152Z,60
2018-12-03T12:34:12.375Z,65
2018-12-03T12:35:12.360Z,75
2018-12-03T12:36:12.353Z,70
2018-12-03T12:37:12.357Z,55
2018-12-03T12:38:12.086Z,55
2018-12-03T12:39:13.425Z,50
2018-12-03T12:40:12.058Z,45
2018-12-03T12:41:12.303Z,40
2018-12-03T12:42:12.291Z,40
2018-12-03T12:43:12.037Z,50
2018-12-03T12:44:12.269Z,55
2018-12-03T12:45:12.264Z,55
2018-12-03T12:46:12.259Z,65
2018-12-03T12:47:12.241Z,60
2018-12-03T12:48:12.234Z,65
2018-12-03T12:49:12.224Z,55
2018-12-03T12:50:12.222Z,40
2018-12-03T12:51:12.200Z,30
2018-12-03T12:52:12.192Z,30
2018-12-03T12:53:12.185Z,20
2018-12-03T12:54:11.928Z,25
2018-12-03T12:55:12.160Z,30
2018-12-03T12:56:12.160Z,40
2018-12-03T12:57:11.891Z,40
2018-12-03T12:58:11.879Z,40
2018-12-03T12:59:12.124Z,30
2018-12-03T13:00:12.124Z,25
2018-12-03T13:01:12.135Z,30
2018-12-03T13:02:12.098Z,25
2018-12-03T13:03:12.079Z,25
2018-12-03T13:04:12.065Z,25
2018-12-03T13:05:12.055Z,40
2018-12-03T13:06:12.060Z,50
2018-12-03T13:07:12.039Z,60
2018-12-03T13:08:11.787Z,60
2018-12-03T13:09:12.021Z,45
2018-12-03T13:10:12.070Z,25
2018-12-03T13:11:12.001Z,15
2018-12-03T13:12:11.981Z,25
2018-12-03T13:13:11.999Z,30
2018-12-03T13:14:11.960Z,45
2018-12-03T13:15:11.955Z,40
2018-12-03T13:16:11.441Z,40
2018-12-03T13:17:11.951Z,45
2018-12-03T13:18:11.673Z,50
2018-12-03T13:19:11.663Z,50
2018-12-03T13:20:11.904Z,40
2018-12-03T13:21:11.877Z,60
2018-12-03T13:22:11.873Z,70
2018-12-03T13:23:11.617Z,65
2018-12-03T13:24:11.845Z,65
2018-12-03T13:25:11.845Z,60
2018-12-03T13:26:11.332Z,55
2018-12-03T13:27:11.565Z,45
2018-12-03T13:28:11.824Z,40
2018-12-03T13:29:11.604Z,35
2018-12-03T13:30:11.294Z,35
2018-12-03T13:31:11.278Z,35
2018-12-03T13:32:11.766Z,30
2018-12-03T13:33:11.763Z,30
2018-12-03T13:34:11.745Z,25
2018-12-03T13:35:11.487Z,20
2018-12-03T13:36:11.729Z,20
2018-12-03T13:37:11.463Z,15
2018-12-03T13:38:11.208Z,15
2018-12-03T13:39:11.441Z,15
2018-12-03T13:40:11.678Z,15
2018-12-03T13:41:11.671Z,10
2018-12-03T13:42:11.170Z,10
2018-12-03T13:43:11.414Z,10
2018-12-03T13:44:11.402Z,5
2018-12-03T13:45:11.385Z,5
2018-12-03T13:46:12.134Z,5
2018-12-03T13:47:11.608Z,5
2018-12-03T13:48:11.599Z,5
2018-12-03T13:49:11.582Z,5
2018-12-03T13:50:12.103Z,5
2018-12-03T13:51:11.562Z,5
2018-12-03T13:52:11.558Z,5
2018-12-03T13:53:11.550Z,5
2018-12-03T13:54:11.536Z,5
2018-12-03T13:55:11.527Z,5
2018-12-03T13:56:11.513Z,5
2018-12-03T13:57:11.552Z,5
2018-12-03T13:58:11.094Z,5
2018-12-03T13:59:11.481Z,10
2018-12-03T14:00:11.525Z,10
2018-12-03T14:01:11.457Z,10
2018-12-03T14:02:11.459Z,10
2018-12-03T14:03:11.444Z,10
2018-12-03T14:04:11.437Z,10
2018-12-03T14:05:11.164Z,10
2018-12-03T14:06:11.402Z,10
2018-12-03T14:07:11.390Z,10
2018-12-03T14:08:11.379Z,10
2018-12-03T14:09:11.382Z,10
2018-12-03T14:10:11.364Z,10
2018-12-03T14:11:11.349Z,10
2018-12-03T14:12:11.333Z,5
2018-12-03T14:13:11.344Z,5
2018-12-03T14:14:11.316Z,5
2018-12-03T14:15:11.309Z,5
2018-12-03T14:16:11.093Z,5
2018-12-03T14:17:11.283Z,5
2018-12-03T14:18:11.022Z,0
2018-12-03T14:19:11.265Z,5
2018-12-03T14:20:11.303Z,5
2018-12-03T14:21:10.995Z,5
2018-12-03T14:22:11.231Z,5
2018-12-03T14:23:11.220Z,5
2018-12-03T14:24:11.211Z,5
2018-12-03T14:25:11.199Z,10
2018-12-03T14:26:11.184Z,10
2018-12-03T14:27:11.175Z,10
2018-12-03T14:28:11.169Z,10
2018-12-03T14:29:10.908Z,5